Time;durP1;ratioP1;P1;durP2;ratioP2;P2;SDS_P1;SDS_P2;PMS_P1;PMS_P2;Temp;Humidity;BMP_temperature;BMP_pressure;BME280_temperature;BME280_humidity;BME280_pressure;Samples;Min_cycle;Max_cycle;Signal;HPM_P1;HPM_P2
2023/06/12 00:01:46;;;;;;;;;;;;;;;;;;2222284;58;2194;-17
2023/06/12 00:04:17;;;;;;;;;;;;;;;;;;2221250;58;1830;-17
2023/06/12 00:06:48;;;;;;;;;;;;;;;;;;2221654;66;1772;-17
2023/06/12 00:09:18;;;;;;;;;;;;;;;;;;2219342;66;1760;-17
2023/06/12 00:11:49;;;;;;;;;;;;;;;;;;2221743;66;1941;-17
2023/06/12 00:14:19;;;;;;;;;;;;;;;;;;2218558;59;1962;-17
2023/06/12 00:16:49;;;;;;;;;;;;;;;;;;2221865;66;1948;-17
2023/06/12 00:19:23;;;;;;;;;;;;;;;;;;2220587;58;3163;-17
2023/06/12 00:21:53;;;;;;;;;;;;;;;;;;2220917;66;3283;-17
2023/06/12 00:24:23;;;;;;;;;;;;;;;;;;2221763;66;1878;-17
2023/06/12 00:26:57;;;;;;;;;;;;;;;;;;2222150;66;2005;-17
2023/06/12 00:29:27;;;;;;;;;;;;;;;;;;2218222;66;2614;-17
2023/06/12 00:31:57;;;;;;;;;;;;;;;;;;2221578;58;1804;-17
2023/06/12 00:34:27;;;;;;;;;;;;;;;;;;2221904;66;1681;-17
2023/06/12 00:36:58;;;;;;;;;;;;;;;;;;2221283;58;2147;-17
2023/06/12 00:39:28;;;;;;;;;;;;;;;;;;2217545;59;2356;-17
2023/06/12 00:41:58;;;;;;;;;;;;;;;;;;2221671;66;1837;-17
2023/06/12 00:44:28;;;;;;;;;;;;;;;;;;2220814;58;1864;-17
2023/06/12 00:46:59;;;;;;;;;;;;;;;;;;2221283;66;2436;-17
2023/06/12 00:49:29;;;;;;;;;;;;;;;;;;2217946;58;1780;-17
2023/06/12 00:52:03;;;;;;;;;;;;;;;;;;2221417;58;1869;-17
2023/06/12 00:54:33;;;;;;;;;;;;;;;;;;2221697;66;1840;-17
2023/06/12 00:57:04;;;;;;;;;;;;;;;;;;2221940;66;1979;-17
2023/06/12 00:59:35;;;;;;;;;;;;;;;;;;2221864;58;1977;-17
2023/06/12 01:02:06;;;;;;;;;;;;;;;;;;2222312;58;1829;-17
2023/06/12 01:04:37;;;;;;;;;;;;;;;;;;2221482;66;1943;-17
2023/06/12 01:07:13;;;;;;;;;;;;;;;;;;2220866;66;1745;-17
2023/06/12 01:09:49;;;;;;;;;;;;;;;;;;2222292;66;1963;-17
2023/06/12 01:12:20;;;;;;;;;;;;;;;;;;2219071;59;1765;-17
2023/06/12 01:14:50;;;;;;;;;;;;;;;;;;2222392;66;2009;-17
2023/06/12 01:17:20;;;;;;;;;;;;;;;;;;2222604;58;2536;-17
2023/06/12 01:19:51;;;;;;;;;;;;;;;;;;2217857;66;3002;-17
2023/06/12 01:22:24;;;;;;;;;;;;;;;;;;2220994;63;3122;-17
2023/06/12 01:24:57;;;;;;;;;;;;;;;;;;2219033;66;1821;-17
2023/06/12 01:27:47;;;;;;;;;;;;;;;;;;2222437;66;1823;-17
2023/06/12 01:30:54;;;;;;;;;;;;;;;;;;2222568;58;1992;-17
2023/06/12 01:33:32;;;;;;;;;;;;;;;;;;2201549;67;1828;-17
2023/06/12 01:36:05;;;;;;;;;;;;;;;;;;2220498;58;2137;-17
2023/06/12 01:38:38;;;;;;;;;;;;;;;;;;2221530;66;1937;-17
2023/06/12 01:41:09;;;;;;;;;;;;;;;;;;2217704;66;1823;-17
2023/06/12 01:43:39;;;;;;;;;;;;;;;;;;2222370;66;1738;-17
2023/06/12 01:46:10;;;;;;;;;;;;;;;;;;2215676;66;1804;-17
2023/06/12 01:48:41;;;;;;;;;;;;;;;;;;2221443;58;2171;-17
2023/06/12 01:51:11;;;;;;;;;;;;;;;;;;2220831;58;2613;-17
2023/06/12 01:53:41;;;;;;;;;;;;;;;;;;2221821;66;1885;-17
2023/06/12 01:56:14;;;;;;;;;;;;;;;;;;2221455;66;1753;-17
2023/06/12 01:58:44;;;;;;;;;;;;;;;;;;2221915;58;1998;-17
2023/06/12 02:01:16;;;;;;;;;;;;;;;;;;2218287;58;1757;-17
2023/06/12 02:03:47;;;;;;;;;;;;;;;;;;2221983;58;2201;-17
2023/06/12 02:06:17;;;;;;;;;;;;;;;;;;2215521;66;1905;-17
2023/06/12 02:08:47;;;;;;;;;;;;;;;;;;2221008;66;1496;-17
2023/06/12 02:11:17;;;;;;;;;;;;;;;;;;2220625;66;1987;-17
2023/06/12 02:13:48;;;;;;;;;;;;;;;;;;2221251;66;1723;-17
2023/06/12 02:16:21;;;;;;;;;;;;;;;;;;2220850;66;1904;-17
2023/06/12 02:18:51;;;;;;;;;;;;;;;;;;2222264;58;2439;-17
2023/06/12 02:21:24;;;;;;;;;;;;;;;;;;2218742;66;2899;-17
2023/06/12 02:23:55;;;;;;;;;;;;;;;;;;2220915;59;3311;-17
2023/06/12 02:26:25;;;;;;;;;;;;;;;;;;2221725;66;1940;-17
2023/06/12 02:29:06;;;;;;;;;;;;;;;;;;2218087;66;1845;-17
2023/06/12 02:31:36;;;;;;;;;;;;;;;;;;2222532;58;1850;-17
2023/06/12 02:34:06;;;;;;;;;;;;;;;;;;2221264;58;2164;-17
2023/06/12 02:36:39;;;;;;;;;;;;;;;;;;2222122;58;1912;-17
2023/06/12 02:39:13;;;;;;;;;;;;;;;;;;2221170;66;1827;-17
2023/06/12 02:41:45;;;;;;;;;;;;;;;;;;2218904;66;2736;-17
2023/06/12 02:44:15;;;;;;;;;;;;;;;;;;2220611;66;2024;-17
2023/06/12 02:46:53;;;;;;;;;;;;;;;;;;2218144;58;2204;-17
2023/06/12 02:49:24;;;;;;;;;;;;;;;;;;2221504;58;2003;-17
2023/06/12 02:51:55;;;;;;;;;;;;;;;;;;2221196;58;1759;-17
2023/06/12 02:54:26;;;;;;;;;;;;;;;;;;2220485;58;1997;-17
2023/06/12 02:56:56;;;;;;;;;;;;;;;;;;2217373;59;2198;-17
2023/06/12 02:59:27;;;;;;;;;;;;;;;;;;2217971;58;2250;-17
2023/06/12 03:01:57;;;;;;;;;;;;;;;;;;2221475;58;1760;-17
2023/06/12 03:04:27;;;;;;;;;;;;;;;;;;2221904;58;1935;-19
2023/06/12 03:06:58;;;;;;;;;;;;;;;;;;2221237;59;1890;-19
2023/06/12 03:09:28;;;;;;;;;;;;;;;;;;2221482;66;2124;-19
2023/06/12 03:11:58;;;;;;;;;;;;;;;;;;2221060;66;1863;-19
2023/06/12 03:14:29;;;;;;;;;;;;;;;;;;2217994;59;1826;-20
2023/06/12 03:16:59;;;;;;;;;;;;;;;;;;2221579;66;1978;-20
2023/06/12 03:19:29;;;;;;;;;;;;;;;;;;2221844;58;1736;-19
2023/06/12 03:22:00;;;;;;;;;;;;;;;;;;2218359;59;3011;-19
2023/06/12 03:24:33;;;;;;;;;;;;;;;;;;2221098;59;3230;-19
2023/06/12 03:27:03;;;;;;;;;;;;;;;;;;2217735;59;1727;-19
2023/06/12 03:29:33;;;;;;;;;;;;;;;;;;2216904;66;1784;-20
2023/06/12 03:32:04;;;;;;;;;;;;;;;;;;2222599;58;2028;-19
2023/06/12 03:34:36;;;;;;;;;;;;;;;;;;2222101;66;1779;-19
2023/06/12 03:37:06;;;;;;;;;;;;;;;;;;2222002;58;1932;-19
2023/06/12 03:39:36;;;;;;;;;;;;;;;;;;2221597;66;1818;-20
2023/06/12 03:42:07;;;;;;;;;;;;;;;;;;2221593;66;1909;-20
2023/06/12 03:44:37;;;;;;;;;;;;;;;;;;2221663;58;2500;-19
2023/06/12 03:47:07;;;;;;;;;;;;;;;;;;2222384;58;2175;-19
2023/06/12 03:49:40;;;;;;;;;;;;;;;;;;2221658;58;2125;-21
2023/06/12 03:52:11;;;;;;;;;;;;;;;;;;2221528;66;2044;-19
2023/06/12 03:54:41;;;;;;;;;;;;;;;;;;2223813;66;2007;-19
2023/06/12 03:57:12;;;;;;;;;;;;;;;;;;2222838;66;1937;-19
2023/06/12 03:59:42;;;;;;;;;;;;;;;;;;2222715;58;2276;-19
2023/06/12 04:02:12;;;;;;;;;;;;;;;;;;2222388;58;1935;-19
2023/06/12 04:04:43;;;;;;;;;;;;;;;;;;2222266;58;1761;-19
2023/06/12 04:07:14;;;;;;;;;;;;;;;;;;2219033;59;1991;-19
2023/06/12 04:09:45;;;;;;;;;;;;;;;;;;2222651;66;1716;-19
2023/06/12 04:12:16;;;;;;;;;;;;;;;;;;2219038;58;2688;-19
2023/06/12 04:14:46;;;;;;;;;;;;;;;;;;2215988;58;1939;-19
2023/06/12 04:17:17;;;;;;;;;;;;;;;;;;2218889;58;2243;-20
2023/06/12 04:19:49;;;;;;;;;;;;;;;;;;2218203;58;2463;-19
2023/06/12 04:22:25;;;;;;;;;;;;;;;;;;2222935;59;2333;-20
2023/06/12 04:24:59;;;;;;;;;;;;;;;;;;2220689;66;3513;-19
2023/06/12 04:27:30;;;;;;;;;;;;;;;;;;2221789;66;2087;-20
2023/06/12 04:30:00;;;;;;;;;;;;;;;;;;2218704;58;2039;-19
2023/06/12 04:32:31;;;;;;;;;;;;;;;;;;2221440;58;2002;-19
2023/06/12 04:35:03;;;;;;;;;;;;;;;;;;2222291;58;1737;-19
2023/06/12 04:37:33;;;;;;;;;;;;;;;;;;2219691;58;1939;-19
2023/06/12 04:40:04;;;;;;;;;;;;;;;;;;2221964;66;2062;-20
2023/06/12 04:42:35;;;;;;;;;;;;;;;;;;2221529;66;2636;-19
2023/06/12 04:45:05;;;;;;;;;;;;;;;;;;2221663;66;1846;-19
2023/06/12 04:47:36;;;;;;;;;;;;;;;;;;2219742;58;2254;-19
2023/06/12 04:50:10;;;;;;;;;;;;;;;;;;2218332;58;2266;-19
2023/06/12 04:52:40;;;;;;;;;;;;;;;;;;2217721;66;1841;-19
2023/06/12 04:55:11;;;;;;;;;;;;;;;;;;2217340;58;1981;-20
2023/06/12 04:57:43;;;;;;;;;;;;;;;;;;2221600;58;1979;-19
2023/06/12 05:00:16;;;;;;;;;;;;;;;;;;2217244;58;2667;-20
2023/06/12 05:02:47;;;;;;;;;;;;;;;;;;2222205;58;2630;-20
2023/06/12 05:05:19;;;;;;;;;;;;;;;;;;2220919;58;2074;-20
2023/06/12 05:07:49;;;;;;;;;;;;;;;;;;2222123;58;2335;-20
2023/06/12 05:10:19;;;;;;;;;;;;;;;;;;2221124;66;2267;-19
2023/06/12 05:12:50;;;;;;;;;;;;;;;;;;2218980;66;1248;-19
2023/06/12 05:15:23;;;;;;;;;;;;;;;;;;2221693;66;1435;-20
2023/06/12 05:17:53;;;;;;;;;;;;;;;;;;2221763;66;1940;-20
2023/06/12 05:20:24;;;;;;;;;;;;;;;;;;2221329;66;1370;-19
2023/06/12 05:22:54;;;;;;;;;;;;;;;;;;2221565;66;1504;-20
2023/06/12 05:25:25;;;;;;;;;;;;;;;;;;2222063;66;1649;-20
2023/06/12 05:27:55;;;;;;;;;;;;;;;;;;2221660;66;1719;-20
2023/06/12 05:30:25;;;;;;;;;;;;;;;;;;2222019;58;2206;-19
2023/06/12 05:32:55;;;;;;;;;;;;;;;;;;2220714;59;2427;-19
2023/06/12 05:35:26;;;;;;;;;;;;;;;;;;2218557;58;2064;-20
2023/06/12 05:37:56;;;;;;;;;;;;;;;;;;2221096;58;2222;-20
2023/06/12 05:40:26;;;;;;;;;;;;;;;;;;2222029;66;1303;-20
2023/06/12 05:42:59;;;;;;;;;;;;;;;;;;2217286;66;1774;-20
2023/06/12 05:45:29;;;;;;;;;;;;;;;;;;2221910;66;1576;-20
2023/06/12 05:47:59;;;;;;;;;;;;;;;;;;2219036;58;2425;-20
2023/06/12 05:50:30;;;;;;;;;;;;;;;;;;2220351;58;2423;-20
2023/06/12 05:53:00;;;;;;;;;;;;;;;;;;2221655;58;1643;-20
2023/06/12 05:55:30;;;;;;;;;;;;;;;;;;2222507;66;1173;-19
2023/06/12 05:58:01;;;;;;;;;;;;;;;;;;2221705;59;2052;-20
2023/06/12 06:00:31;;;;;;;;;;;;;;;;;;2218764;58;2194;-20
2023/06/12 06:03:06;;;;;;;;;;;;;;;;;;2218315;58;1458;-20
2023/06/12 06:05:36;;;;;;;;;;;;;;;;;;2221495;58;1616;-20
2023/06/12 06:08:07;;;;;;;;;;;;;;;;;;2222097;66;1191;-20
2023/06/12 06:10:37;;;;;;;;;;;;;;;;;;2221148;58;2269;-20
2023/06/12 06:13:08;;;;;;;;;;;;;;;;;;2220847;58;2196;-20
2023/06/12 06:15:38;;;;;;;;;;;;;;;;;;2221353;66;1987;-20
2023/06/12 06:18:08;;;;;;;;;;;;;;;;;;2218516;66;1991;-20
2023/06/12 06:20:38;;;;;;;;;;;;;;;;;;2220671;58;2950;-20
2023/06/12 06:23:09;;;;;;;;;;;;;;;;;;2217104;59;2140;-21
2023/06/12 06:25:39;;;;;;;;;;;;;;;;;;2220868;58;2059;-20
2023/06/12 06:28:09;;;;;;;;;;;;;;;;;;2215774;59;2625;-20
2023/06/12 06:30:40;;;;;;;;;;;;;;;;;;2220757;58;2437;-20
2023/06/12 06:33:10;;;;;;;;;;;;;;;;;;2221750;66;1730;-20
2023/06/12 06:35:40;;;;;;;;;;;;;;;;;;2221315;66;1850;-20
2023/06/12 06:38:11;;;;;;;;;;;;;;;;;;2221261;66;1994;-20
2023/06/12 06:40:41;;;;;;;;;;;;;;;;;;2221434;66;2383;-20
2023/06/12 06:43:11;;;;;;;;;;;;;;;;;;2220590;58;2171;-20
2023/06/12 06:45:42;;;;;;;;;;;;;;;;;;2222268;59;2312;-19
2023/06/12 06:48:12;;;;;;;;;;;;;;;;;;2217686;59;2401;-20
2023/06/12 06:50:43;;;;;;;;;;;;;;;;;;2221729;58;1237;-19
2023/06/12 06:53:13;;;;;;;;;;;;;;;;;;2221132;58;1740;-20
2023/06/12 06:55:43;;;;;;;;;;;;;;;;;;2218875;66;1471;-19
2023/06/12 06:58:14;;;;;;;;;;;;;;;;;;2218542;58;3050;-20
2023/06/12 07:00:45;;;;;;;;;;;;;;;;;;2220754;58;2143;-19
2023/06/12 07:03:15;;;;;;;;;;;;;;;;;;2220957;58;1290;-19
2023/06/12 07:05:46;;;;;;;;;;;;;;;;;;2221932;58;1359;-19
2023/06/12 07:08:17;;;;;;;;;;;;;;;;;;2219238;58;2375;-20
2023/06/12 07:10:47;;;;;;;;;;;;;;;;;;2221259;59;2600;-20
2023/06/12 07:13:18;;;;;;;;;;;;;;;;;;2221292;66;1754;-20
2023/06/12 07:15:51;;;;;;;;;;;;;;;;;;2221615;58;2196;-17
2023/06/12 07:18:21;;;;;;;;;;;;;;;;;;2221413;66;1942;-17
2023/06/12 07:20:52;;;;;;;;;;;;;;;;;;2221101;58;2334;-17
2023/06/12 07:23:22;;;;;;;;;;;;;;;;;;2221885;66;2526;-17
2023/06/12 07:25:52;;;;;;;;;;;;;;;;;;2221923;66;2195;-18
2023/06/12 07:28:23;;;;;;;;;;;;;;;;;;2221663;66;1519;-18
2023/06/12 07:30:53;;;;;;;;;;;;;;;;;;2222712;58;1590;-17
2023/06/12 07:33:23;;;;;;;;;;;;;;;;;;2221564;66;2138;-20
2023/06/12 07:35:53;;;;;;;;;;;;;;;;;;2222663;58;1654;-20
2023/06/12 07:38:24;;;;;;;;;;;;;;;;;;2223296;66;1931;-20
2023/06/12 07:40:54;;;;;;;;;;;;;;;;;;2222823;58;1989;-21
2023/06/12 07:43:24;;;;;;;;;;;;;;;;;;2220310;66;1324;-20
2023/06/12 07:45:57;;;;;;;;;;;;;;;;;;2218536;60;1185;-20
2023/06/12 07:48:28;;;;;;;;;;;;;;;;;;2219867;58;2253;-20
2023/06/12 07:50:58;;;;;;;;;;;;;;;;;;2216118;58;1320;-20
2023/06/12 07:53:28;;;;;;;;;;;;;;;;;;2220698;58;1731;-20
2023/06/12 07:56:00;;;;;;;;;;;;;;;;;;2219761;66;1971;-20
2023/06/12 07:58:30;;;;;;;;;;;;;;;;;;2219957;58;2002;-20
2023/06/12 08:01:04;;;;;;;;;;;;;;;;;;2217842;58;1531;-20
2023/06/12 08:03:38;;;;;;;;;;;;;;;;;;2220306;58;1348;-21
2023/06/12 08:06:09;;;;;;;;;;;;;;;;;;2220917;66;1279;-22
2023/06/12 08:08:40;;;;;;;;;;;;;;;;;;2219915;58;2372;-21
2023/06/12 08:11:11;;;;;;;;;;;;;;;;;;2219173;58;2596;-21
2023/06/12 08:13:41;;;;;;;;;;;;;;;;;;2216093;58;2204;-21
2023/06/12 08:16:11;;;;;;;;;;;;;;;;;;2216402;59;1855;-21
2023/06/12 08:18:42;;;;;;;;;;;;;;;;;;2219575;66;1948;-20
2023/06/12 08:21:12;;;;;;;;;;;;;;;;;;2219408;58;1621;-21
2023/06/12 08:23:42;;;;;;;;;;;;;;;;;;2219951;66;1796;-21
2023/06/12 08:26:16;;;;;;;;;;;;;;;;;;2216211;66;1837;-21
2023/06/12 08:28:49;;;;;;;;;;;;;;;;;;2220212;66;1929;-20
2023/06/12 08:31:21;;;;;;;;;;;;;;;;;;2216952;58;2070;-21
2023/06/12 08:33:51;;;;;;;;;;;;;;;;;;2218424;58;2506;-21
2023/06/12 08:36:27;;;;;;;;;;;;;;;;;;2220814;58;2133;-21
2023/06/12 08:38:58;;;;;;;;;;;;;;;;;;2221072;66;1948;-21
2023/06/12 08:41:30;;;;;;;;;;;;;;;;;;2221156;66;1190;-21
2023/06/12 08:44:01;;;;;;;;;;;;;;;;;;2221409;58;1413;-21
2023/06/12 08:46:31;;;;;;;;;;;;;;;;;;2218175;58;2170;-21
2023/06/12 08:49:02;;;;;;;;;;;;;;;;;;2220696;66;1089;-21
2023/06/12 08:51:32;;;;;;;;;;;;;;;;;;2221502;58;1364;-21
2023/06/12 08:54:03;;;;;;;;;;;;;;;;;;2218967;58;1676;-21
2023/06/12 08:56:33;;;;;;;;;;;;;;;;;;2220943;66;2128;-21
2023/06/12 08:59:04;;;;;;;;;;;;;;;;;;2218617;59;2079;-21
2023/06/12 09:01:36;;;;;;;;;;;;;;;;;;2220690;58;1662;-21
2023/06/12 09:06:40;;;;;;;;;;;;;;;;;;2202139;59;1723;-19
2023/06/12 09:09:10;;;;;;;;;;;;;;;;;;2203852;59;1323;-19
2023/06/12 09:11:41;;;;;;;;;;;;;;;;;;2202156;66;2080;-19
2023/06/12 09:14:11;;;;;;;;;;;;;;;;;;2205384;66;3042;-19
2023/06/12 09:16:45;;;;;;;;;;;;;;;;;;2206374;66;1991;-19
2023/06/12 09:19:15;;;;;;;;;;;;;;;;;;2205871;59;1715;-20
2023/06/12 09:21:49;;;;;;;;;;;;;;;;;;2206953;66;2917;-19
2023/06/12 09:24:20;;;;;;;;;;;;;;;;;;2203174;63;2646;-18
2023/06/12 09:26:50;;;;;;;;;;;;;;;;;;2207557;66;1986;-19
2023/06/12 09:29:25;;;;;;;;;;;;;;;;;;2205881;66;2018;-19
2023/06/12 09:31:57;;;;;;;;;;;;;;;;;;2206247;59;2734;-19
2023/06/12 09:34:28;;;;;;;;;;;;;;;;;;2204439;59;2388;-19
2023/06/12 09:36:58;;;;;;;;;;;;;;;;;;2206231;59;2339;-19
2023/06/12 09:39:29;;;;;;;;;;;;;;;;;;2206273;59;2252;-19
2023/06/12 09:42:01;;;;;;;;;;;;;;;;;;2206965;66;1787;-19
2023/06/12 09:44:31;;;;;;;;;;;;;;;;;;2206463;66;2358;-19
2023/06/12 09:47:03;;;;;;;;;;;;;;;;;;2203181;59;2556;-18
2023/06/12 09:49:34;;;;;;;;;;;;;;;;;;2206260;59;1805;-18
2023/06/12 09:52:05;;;;;;;;;;;;;;;;;;2207259;59;1917;-18
2023/06/12 09:54:36;;;;;;;;;;;;;;;;;;2206941;66;2182;-19
2023/06/12 09:57:08;;;;;;;;;;;;;;;;;;2207095;66;1933;-19
2023/06/12 09:59:40;;;;;;;;;;;;;;;;;;2206742;59;1990;-19
2023/06/12 10:02:12;;;;;;;;;;;;;;;;;;2207320;58;2597;-19
2023/06/12 10:04:48;;;;;;;;;;;;;;;;;;2206721;59;1569;-18
2023/06/12 10:07:23;;;;;;;;;;;;;;;;;;2206816;66;1430;-19
2023/06/12 10:09:53;;;;;;;;;;;;;;;;;;2205959;59;2180;-19
2023/06/12 10:12:25;;;;;;;;;;;;;;;;;;2206606;59;2487;-18
2023/06/12 10:14:56;;;;;;;;;;;;;;;;;;2203603;59;2221;-19
2023/06/12 10:17:27;;;;;;;;;;;;;;;;;;2204611;59;3056;-19
2023/06/12 10:19:58;;;;;;;;;;;;;;;;;;2206156;59;1364;-18
2023/06/12 10:22:28;;;;;;;;;;;;;;;;;;2205987;59;2011;-18
2023/06/12 10:24:58;;;;;;;;;;;;;;;;;;2206066;66;1645;-19
2023/06/12 10:27:29;;;;;;;;;;;;;;;;;;2206685;58;1214;-18
2023/06/12 10:30:00;;;;;;;;;;;;;;;;;;2206633;59;2553;-18
2023/06/12 10:32:32;;;;;;;;;;;;;;;;;;2205778;66;1647;-18
2023/06/12 10:35:03;;;;;;;;;;;;;;;;;;2206800;59;1309;-18
2023/06/12 10:37:42;;;;;;;;;;;;;;;;;;2206483;59;2469;-19
2023/06/12 10:40:15;;;;;;;;;;;;;;;;;;2206507;66;1634;-19
2023/06/12 10:42:55;;;;;;;;;;;;;;;;;;2206856;66;1281;-18
2023/06/12 10:45:27;;;;;;;;;;;;;;;;;;2207084;59;1319;-18
2023/06/12 10:48:07;;;;;;;;;;;;;;;;;;2207124;59;2065;-19
2023/06/12 10:50:53;;;;;;;;;;;;;;;;;;2205610;59;2521;-19
2023/06/12 10:53:27;;;;;;;;;;;;;;;;;;2206364;66;2036;-17
2023/06/12 10:56:03;;;;;;;;;;;;;;;;;;2206431;66;1178;-18
2023/06/12 10:58:36;;;;;;;;;;;;;;;;;;2206474;59;1963;-18
2023/06/12 11:01:12;;;;;;;;;;;;;;;;;;2207222;58;1167;-19
2023/06/12 11:03:43;;;;;;;;;;;;;;;;;;2206295;66;1910;-18
2023/06/12 11:06:15;;;;;;;;;;;;;;;;;;2203071;59;1347;-18
2023/06/12 11:08:46;;;;;;;;;;;;;;;;;;2207630;66;1777;-19
2023/06/12 11:11:17;;;;;;;;;;;;;;;;;;2205765;66;1346;-19
2023/06/12 11:13:47;;;;;;;;;;;;;;;;;;2205777;59;2338;-18
2023/06/12 11:16:19;;;;;;;;;;;;;;;;;;2206101;66;1686;-18
2023/06/12 11:19:06;;;;;;;;;;;;;;;;;;2202941;66;2007;-18
2023/06/12 11:21:39;;;;;;;;;;;;;;;;;;2206189;59;1743;-19
2023/06/12 11:24:12;;;;;;;;;;;;;;;;;;2206599;66;1308;-20
2023/06/12 11:26:42;;;;;;;;;;;;;;;;;;2206544;66;1171;-18
2023/06/12 11:29:13;;;;;;;;;;;;;;;;;;2206274;66;1842;-19
2023/06/12 11:32:11;;;;;;;;;;;;;;;;;;2207328;59;1747;-19
2023/06/12 11:34:41;;;;;;;;;;;;;;;;;;2206130;59;2365;-19
2023/06/12 11:37:16;;;;;;;;;;;;;;;;;;2203745;58;2435;-19
2023/06/12 11:39:46;;;;;;;;;;;;;;;;;;2206332;66;2492;-19
2023/06/12 11:42:17;;;;;;;;;;;;;;;;;;2206897;59;2226;-19
2023/06/12 11:44:49;;;;;;;;;;;;;;;;;;2207221;66;2585;-19
2023/06/12 11:47:20;;;;;;;;;;;;;;;;;;2206854;59;1886;-18
2023/06/12 11:49:51;;;;;;;;;;;;;;;;;;2206212;59;2859;-19
2023/06/12 11:52:22;;;;;;;;;;;;;;;;;;2205584;59;2380;-19
2023/06/12 11:54:59;;;;;;;;;;;;;;;;;;2204047;59;2798;-18
2023/06/12 11:57:30;;;;;;;;;;;;;;;;;;2205760;59;2639;-17
2023/06/12 12:00:07;;;;;;;;;;;;;;;;;;2208741;59;2249;-19
2023/06/12 12:02:41;;;;;;;;;;;;;;;;;;2204397;58;2420;-20
2023/06/12 12:05:11;;;;;;;;;;;;;;;;;;2200908;59;1798;-20
2023/06/12 12:07:45;;;;;;;;;;;;;;;;;;2206160;59;2102;-18
2023/06/12 12:10:15;;;;;;;;;;;;;;;;;;2206477;59;2624;-18
2023/06/12 12:12:45;;;;;;;;;;;;;;;;;;2206436;59;2109;-18
2023/06/12 12:15:16;;;;;;;;;;;;;;;;;;2206650;66;2209;-17
2023/06/12 12:17:47;;;;;;;;;;;;;;;;;;2207066;59;1937;-18
2023/06/12 12:20:19;;;;;;;;;;;;;;;;;;2207228;59;2076;-20
2023/06/12 12:22:57;;;;;;;;;;;;;;;;;;2206388;59;2068;-17
2023/06/12 12:25:28;;;;;;;;;;;;;;;;;;2206004;59;2246;-18
2023/06/12 12:28:03;;;;;;;;;;;;;;;;;;2206247;59;2527;-17
2023/06/12 12:30:33;;;;;;;;;;;;;;;;;;2206395;59;2527;-20
2023/06/12 12:33:04;;;;;;;;;;;;;;;;;;2206912;66;1269;-20
2023/06/12 12:35:34;;;;;;;;;;;;;;;;;;2207066;59;1945;-20
2023/06/12 12:38:04;;;;;;;;;;;;;;;;;;2204871;59;2693;-20
2023/06/12 12:40:35;;;;;;;;;;;;;;;;;;2206320;66;2319;-20
2023/06/12 12:43:05;;;;;;;;;;;;;;;;;;2206028;66;1869;-20
2023/06/12 12:45:38;;;;;;;;;;;;;;;;;;2206309;66;1659;-17
2023/06/12 12:48:09;;;;;;;;;;;;;;;;;;2206980;59;2212;-21
2023/06/12 12:50:39;;;;;;;;;;;;;;;;;;2207193;59;1962;-21
2023/06/12 12:53:09;;;;;;;;;;;;;;;;;;2201998;59;1724;-20
2023/06/12 12:55:40;;;;;;;;;;;;;;;;;;2206765;59;2238;-21
2023/06/12 12:58:10;;;;;;;;;;;;;;;;;;2206217;66;2183;-21
2023/06/12 13:00:40;;;;;;;;;;;;;;;;;;2206015;66;1726;-20
2023/06/12 13:03:11;;;;;;;;;;;;;;;;;;2206217;66;2519;-20
2023/06/12 13:05:41;;;;;;;;;;;;;;;;;;2206646;59;2074;-20
2023/06/12 13:08:16;;;;;;;;;;;;;;;;;;2201214;59;2796;-18
2023/06/12 13:10:46;;;;;;;;;;;;;;;;;;2204048;66;1926;-18
2023/06/12 13:13:16;;;;;;;;;;;;;;;;;;2206633;66;1829;-20
2023/06/12 13:15:47;;;;;;;;;;;;;;;;;;2206729;66;1761;-21
2023/06/12 13:18:18;;;;;;;;;;;;;;;;;;2204972;59;2101;-18
2023/06/12 13:20:48;;;;;;;;;;;;;;;;;;2206183;59;2179;-18
2023/06/12 13:23:20;;;;;;;;;;;;;;;;;;2204824;59;2445;-18
2023/06/12 13:25:53;;;;;;;;;;;;;;;;;;2203055;59;1948;-21
2023/06/12 13:28:23;;;;;;;;;;;;;;;;;;2205781;66;2025;-20
2023/06/12 13:30:54;;;;;;;;;;;;;;;;;;2205799;59;1854;-21
2023/06/12 13:33:24;;;;;;;;;;;;;;;;;;2206319;66;1883;-20
2023/06/12 13:35:54;;;;;;;;;;;;;;;;;;2205830;59;2706;-20
2023/06/12 13:38:25;;;;;;;;;;;;;;;;;;2206517;59;1923;-18
2023/06/12 13:40:55;;;;;;;;;;;;;;;;;;2206751;66;1791;-18
2023/06/12 13:43:25;;;;;;;;;;;;;;;;;;2206676;59;2107;-18
2023/06/12 13:45:57;;;;;;;;;;;;;;;;;;2206038;66;2613;-20
2023/06/12 13:48:28;;;;;;;;;;;;;;;;;;2206462;59;2200;-20
2023/06/12 13:50:59;;;;;;;;;;;;;;;;;;2206722;59;2972;-20
2023/06/12 13:53:29;;;;;;;;;;;;;;;;;;2203656;58;3784;-20
2023/06/12 13:56:03;;;;;;;;;;;;;;;;;;2204245;59;2702;-20
2023/06/12 13:58:33;;;;;;;;;;;;;;;;;;2205451;59;2085;-18
2023/06/12 14:01:03;;;;;;;;;;;;;;;;;;2206842;59;1865;-18
2023/06/12 14:03:34;;;;;;;;;;;;;;;;;;2206097;66;2515;-17
2023/06/12 14:06:06;;;;;;;;;;;;;;;;;;2204279;59;2596;-20
2023/06/12 14:08:40;;;;;;;;;;;;;;;;;;2207049;66;1945;-18
2023/06/12 14:11:10;;;;;;;;;;;;;;;;;;2207179;59;3055;-18
2023/06/12 14:13:41;;;;;;;;;;;;;;;;;;2206137;59;1953;-18
2023/06/12 14:16:12;;;;;;;;;;;;;;;;;;2206080;59;1826;-19
2023/06/12 14:18:42;;;;;;;;;;;;;;;;;;2205992;59;2676;-19
2023/06/12 14:21:12;;;;;;;;;;;;;;;;;;2202210;59;2089;-18
2023/06/12 14:23:45;;;;;;;;;;;;;;;;;;2205531;66;1479;-18
2023/06/12 14:26:15;;;;;;;;;;;;;;;;;;2204656;66;2193;-18
2023/06/12 14:28:45;;;;;;;;;;;;;;;;;;2205663;62;1993;-17
2023/06/12 14:31:15;;;;;;;;;;;;;;;;;;2205106;59;2394;-18
2023/06/12 14:33:45;;;;;;;;;;;;;;;;;;2202050;59;1860;-18
2023/06/12 14:36:16;;;;;;;;;;;;;;;;;;2205565;59;2399;-17
2023/06/12 14:38:46;;;;;;;;;;;;;;;;;;2206546;66;2593;-18
2023/06/12 14:41:16;;;;;;;;;;;;;;;;;;2206466;66;2025;-18
2023/06/12 14:43:46;;;;;;;;;;;;;;;;;;2206208;66;1763;-18
2023/06/12 14:46:17;;;;;;;;;;;;;;;;;;2206273;66;1725;-17
2023/06/12 14:48:47;;;;;;;;;;;;;;;;;;2206128;59;2510;-18
2023/06/12 14:51:17;;;;;;;;;;;;;;;;;;2206102;59;2457;-18
2023/06/12 14:53:50;;;;;;;;;;;;;;;;;;2205878;63;2213;-18
2023/06/12 14:56:20;;;;;;;;;;;;;;;;;;2205916;59;2362;-17
2023/06/12 14:58:51;;;;;;;;;;;;;;;;;;2206374;66;2002;-18
2023/06/12 15:01:21;;;;;;;;;;;;;;;;;;2206628;58;1905;-18
2023/06/12 15:03:51;;;;;;;;;;;;;;;;;;2210230;53;3744;-22
2023/06/12 15:06:21;;;;;;;;;;;;;;;;;;2214450;58;1884;-22
2023/06/12 15:08:51;;;;;;;;;;;;;;;;;;2214886;58;2001;-22
2023/06/12 15:11:22;;;;;;;;;;;;;;;;;;2212685;59;1888;-20
2023/06/12 15:13:52;;;;;;;;;;;;;;;;;;2211870;59;1792;-20
2023/06/12 15:16:22;;;;;;;;;;;;;;;;;;2216121;66;2214;-20
2023/06/12 15:18:52;;;;;;;;;;;;;;;;;;2216694;66;2035;-20
2023/06/12 15:21:23;;;;;;;;;;;;;;;;;;2217463;58;2007;-20
2023/06/12 15:23:53;;;;;;;;;;;;;;;;;;2217460;66;1947;-20
2023/06/12 15:26:23;;;;;;;;;;;;;;;;;;2218634;66;1877;-20
2023/06/12 15:28:53;;;;;;;;;;;;;;;;;;2218554;66;1771;-20
2023/06/12 15:31:23;;;;;;;;;;;;;;;;;;2216155;58;2484;-20
2023/06/12 15:33:54;;;;;;;;;;;;;;;;;;2212380;66;2032;-20
2023/06/12 15:36:24;;;;;;;;;;;;;;;;;;2216024;58;2277;-20
2023/06/12 15:38:55;;;;;;;;;;;;;;;;;;2215432;58;1948;-22
2023/06/12 15:41:25;;;;;;;;;;;;;;;;;;2215819;66;1737;-22
2023/06/12 15:43:55;;;;;;;;;;;;;;;;;;2215123;59;2930;-22
2023/06/12 15:46:25;;;;;;;;;;;;;;;;;;2213771;59;2197;-22
2023/06/12 15:48:56;;;;;;;;;;;;;;;;;;2217599;66;2414;-22
2023/06/12 15:51:26;;;;;;;;;;;;;;;;;;2216868;58;1472;-22
2023/06/12 15:53:56;;;;;;;;;;;;;;;;;;2215956;58;1497;-22
2023/06/12 15:56:27;;;;;;;;;;;;;;;;;;2215127;59;2514;-22
2023/06/12 15:58:57;;;;;;;;;;;;;;;;;;2215816;59;2076;-22
2023/06/12 16:01:28;;;;;;;;;;;;;;;;;;2216246;58;2744;-22
2023/06/12 16:03:58;;;;;;;;;;;;;;;;;;2215518;58;1954;-22
2023/06/12 16:06:28;;;;;;;;;;;;;;;;;;2212384;59;2289;-22
2023/06/12 16:08:58;;;;;;;;;;;;;;;;;;2215615;66;1788;-20
2023/06/12 16:11:29;;;;;;;;;;;;;;;;;;2216156;66;1770;-20
2023/06/12 16:13:59;;;;;;;;;;;;;;;;;;2215843;58;2183;-20
2023/06/12 16:16:32;;;;;;;;;;;;;;;;;;2214902;58;2176;-20
2023/06/12 16:19:03;;;;;;;;;;;;;;;;;;2214762;58;2479;-20
2023/06/12 16:21:33;;;;;;;;;;;;;;;;;;2215386;66;2006;-19
2023/06/12 16:24:06;;;;;;;;;;;;;;;;;;2215668;58;1868;-20
2023/06/12 16:26:38;;;;;;;;;;;;;;;;;;2212195;66;2031;-19
2023/06/12 16:29:08;;;;;;;;;;;;;;;;;;2216171;66;1938;-20
2023/06/12 16:31:38;;;;;;;;;;;;;;;;;;2212358;59;2629;-19
2023/06/12 16:34:08;;;;;;;;;;;;;;;;;;2216388;66;1880;-20
2023/06/12 16:36:38;;;;;;;;;;;;;;;;;;2215786;58;1803;-19
2023/06/12 16:39:09;;;;;;;;;;;;;;;;;;2215605;66;1940;-19
2023/06/12 16:41:39;;;;;;;;;;;;;;;;;;2216457;66;1899;-19
2023/06/12 16:44:09;;;;;;;;;;;;;;;;;;2215795;66;2342;-19
2023/06/12 16:46:39;;;;;;;;;;;;;;;;;;2215768;66;2253;-19
2023/06/12 16:49:10;;;;;;;;;;;;;;;;;;2216331;58;2999;-19
2023/06/12 16:51:40;;;;;;;;;;;;;;;;;;2215879;58;3024;-19
2023/06/12 16:54:12;;;;;;;;;;;;;;;;;;2215837;66;1770;-19
2023/06/12 16:56:43;;;;;;;;;;;;;;;;;;2214059;59;2439;-19
2023/06/12 16:59:16;;;;;;;;;;;;;;;;;;2216299;58;2070;-19
2023/06/12 17:01:47;;;;;;;;;;;;;;;;;;2216355;58;1824;-20
2023/06/12 17:04:17;;;;;;;;;;;;;;;;;;2215746;59;1711;-19
2023/06/12 17:06:47;;;;;;;;;;;;;;;;;;2212556;59;3074;-20
2023/06/12 17:09:18;;;;;;;;;;;;;;;;;;2215389;66;1917;-19
2023/06/12 17:11:48;;;;;;;;;;;;;;;;;;2215511;58;2091;-19
2023/06/12 17:14:18;;;;;;;;;;;;;;;;;;2215431;66;2388;-20
2023/06/12 17:16:48;;;;;;;;;;;;;;;;;;2215506;59;1991;-20
2023/06/12 17:19:18;;;;;;;;;;;;;;;;;;2215461;59;1932;-19
2023/06/12 17:21:49;;;;;;;;;;;;;;;;;;2215409;66;1844;-19
2023/06/12 17:24:19;;;;;;;;;;;;;;;;;;2215952;58;2044;-22
2023/06/12 17:26:52;;;;;;;;;;;;;;;;;;2214614;58;2876;-21
2023/06/12 17:29:22;;;;;;;;;;;;;;;;;;2212066;59;1460;-22
2023/06/12 17:31:52;;;;;;;;;;;;;;;;;;2215778;58;1806;-22
2023/06/12 17:34:23;;;;;;;;;;;;;;;;;;2216227;58;2342;-21